sensor_id;sensor_type;location;lat;lon;timestamp;temperature;humidity
40153;DHT22;26371;56.992;23.912;2024-03-08T00:01:54;-0.80;99.90
40153;DHT22;26371;56.992;23.912;2024-03-08T00:04:23;-0.80;99.90
40153;DHT22;26371;56.992;23.912;2024-03-08T00:06:52;-0.80;99.90
40153;DHT22;26371;56.992;23.912;2024-03-08T00:09:20;-0.80;99.90
40153;DHT22;26371;56.992;23.912;2024-03-08T00:11:49;-0.70;99.90
40153;DHT22;26371;56.992;23.912;2024-03-08T00:14:19;-0.70;99.90
40153;DHT22;26371;56.992;23.912;2024-03-08T00:16:50;-0.70;99.90
40153;DHT22;26371;56.992;23.912;2024-03-08T00:19:20;-0.70;99.90
40153;DHT22;26371;56.992;23.912;2024-03-08T00:21:48;-0.70;99.90
40153;DHT22;26371;56.992;23.912;2024-03-08T00:24:17;-0.70;99.90
40153;DHT22;26371;56.992;23.912;2024-03-08T00:26:45;-0.70;99.90
40153;DHT22;26371;56.992;23.912;2024-03-08T00:29:14;-0.70;99.90
40153;DHT22;26371;56.992;23.912;2024-03-08T00:31:43;-0.70;99.90
40153;DHT22;26371;56.992;23.912;2024-03-08T00:34:13;-0.70;99.90
40153;DHT22;26371;56.992;23.912;2024-03-08T00:36:41;-0.70;99.90
40153;DHT22;26371;56.992;23.912;2024-03-08T00:39:11;-0.80;99.90
40153;DHT22;26371;56.992;23.912;2024-03-08T00:41:40;-0.70;99.90
40153;DHT22;26371;56.992;23.912;2024-03-08T00:44:09;-0.80;99.90
40153;DHT22;26371;56.992;23.912;2024-03-08T00:46:37;-0.70;99.90
40153;DHT22;26371;56.992;23.912;2024-03-08T00:49:06;-0.70;99.90
40153;DHT22;26371;56.992;23.912;2024-03-08T00:51:36;-0.80;99.90
40153;DHT22;26371;56.992;23.912;2024-03-08T00:54:05;-0.80;99.90
40153;DHT22;26371;56.992;23.912;2024-03-08T00:56:33;-0.90;99.90
40153;DHT22;26371;56.992;23.912;2024-03-08T00:59:02;-0.80;99.90
40153;DHT22;26371;56.992;23.912;2024-03-08T01:01:31;-0.80;99.90
40153;DHT22;26371;56.992;23.912;2024-03-08T01:03:59;-0.80;99.90
40153;DHT22;26371;56.992;23.912;2024-03-08T01:06:28;-0.80;99.90
40153;DHT22;26371;56.992;23.912;2024-03-08T01:08:57;-0.90;99.90
40153;DHT22;26371;56.992;23.912;2024-03-08T01:11:27;-0.90;99.90
40153;DHT22;26371;56.992;23.912;2024-03-08T01:13:56;-0.90;99.90
40153;DHT22;26371;56.992;23.912;2024-03-08T01:16:24;-0.80;99.90
40153;DHT22;26371;56.992;23.912;2024-03-08T01:18:53;-0.80;99.90
40153;DHT22;26371;56.992;23.912;2024-03-08T01:21:21;-0.80;99.90
40153;DHT22;26371;56.992;23.912;2024-03-08T01:23:50;-0.80;99.90
40153;DHT22;26371;56.992;23.912;2024-03-08T01:26:20;-0.80;99.90
40153;DHT22;26371;56.992;23.912;2024-03-08T01:28:49;-0.70;99.90
40153;DHT22;26371;56.992;23.912;2024-03-08T01:31:18;-0.70;99.90
40153;DHT22;26371;56.992;23.912;2024-03-08T01:33:46;-0.70;99.90
40153;DHT22;26371;56.992;23.912;2024-03-08T01:36:15;-0.70;99.90
40153;DHT22;26371;56.992;23.912;2024-03-08T01:38:46;-0.70;99.90
40153;DHT22;26371;56.992;23.912;2024-03-08T01:41:15;-0.60;99.90
40153;DHT22;26371;56.992;23.912;2024-03-08T01:43:46;-0.70;99.90
40153;DHT22;26371;56.992;23.912;2024-03-08T01:46:17;-0.80;99.90
40153;DHT22;26371;56.992;23.912;2024-03-08T01:48:49;-0.90;99.90
40153;DHT22;26371;56.992;23.912;2024-03-08T01:51:19;-1.00;99.90
40153;DHT22;26371;56.992;23.912;2024-03-08T01:53:48;-1.00;99.90
40153;DHT22;26371;56.992;23.912;2024-03-08T01:56:17;-0.90;99.90
40153;DHT22;26371;56.992;23.912;2024-03-08T01:58:47;-0.90;99.90
40153;DHT22;26371;56.992;23.912;2024-03-08T02:01:16;-0.90;99.90
40153;DHT22;26371;56.992;23.912;2024-03-08T02:03:46;-0.90;99.90
40153;DHT22;26371;56.992;23.912;2024-03-08T02:06:15;-0.80;99.90
40153;DHT22;26371;56.992;23.912;2024-03-08T02:08:44;-0.80;99.90
40153;DHT22;26371;56.992;23.912;2024-03-08T02:11:14;-0.80;99.90
40153;DHT22;26371;56.992;23.912;2024-03-08T02:13:43;-0.80;99.90
40153;DHT22;26371;56.992;23.912;2024-03-08T02:16:19;-0.80;99.90
40153;DHT22;26371;56.992;23.912;2024-03-08T02:18:48;-0.80;99.90
40153;DHT22;26371;56.992;23.912;2024-03-08T02:21:18;-0.80;99.90
40153;DHT22;26371;56.992;23.912;2024-03-08T02:23:48;-0.80;99.90
40153;DHT22;26371;56.992;23.912;2024-03-08T02:26:19;-0.80;99.90
40153;DHT22;26371;56.992;23.912;2024-03-08T02:28:48;-0.80;99.90
40153;DHT22;26371;56.992;23.912;2024-03-08T02:31:16;-0.80;99.90
40153;DHT22;26371;56.992;23.912;2024-03-08T02:33:45;-0.80;99.90
40153;DHT22;26371;56.992;23.912;2024-03-08T02:36:15;-0.80;99.90
40153;DHT22;26371;56.992;23.912;2024-03-08T02:38:45;-0.70;99.90
40153;DHT22;26371;56.992;23.912;2024-03-08T02:41:14;-0.70;99.90
40153;DHT22;26371;56.992;23.912;2024-03-08T02:43:42;-0.70;99.90
40153;DHT22;26371;56.992;23.912;2024-03-08T02:46:12;-0.70;99.90
40153;DHT22;26371;56.992;23.912;2024-03-08T02:48:42;-0.70;99.90
40153;DHT22;26371;56.992;23.912;2024-03-08T02:51:11;-0.70;99.90
40153;DHT22;26371;56.992;23.912;2024-03-08T02:53:40;-0.80;99.90
40153;DHT22;26371;56.992;23.912;2024-03-08T02:56:11;-0.80;99.90
40153;DHT22;26371;56.992;23.912;2024-03-08T02:58:43;-0.80;99.90
40153;DHT22;26371;56.992;23.912;2024-03-08T03:01:16;-0.90;99.90
40153;DHT22;26371;56.992;23.912;2024-03-08T03:03:47;-0.90;99.90
40153;DHT22;26371;56.992;23.912;2024-03-08T03:06:16;-0.90;99.90
40153;DHT22;26371;56.992;23.912;2024-03-08T03:08:48;-1.00;99.90
40153;DHT22;26371;56.992;23.912;2024-03-08T03:11:20;-1.00;99.90
40153;DHT22;26371;56.992;23.912;2024-03-08T03:13:49;-0.90;99.90
40153;DHT22;26371;56.992;23.912;2024-03-08T03:16:18;-0.80;99.90
40153;DHT22;26371;56.992;23.912;2024-03-08T03:18:47;-0.80;99.90
40153;DHT22;26371;56.992;23.912;2024-03-08T03:21:16;-0.80;99.90
40153;DHT22;26371;56.992;23.912;2024-03-08T03:23:45;-0.80;99.90
40153;DHT22;26371;56.992;23.912;2024-03-08T03:26:18;-0.90;99.90
40153;DHT22;26371;56.992;23.912;2024-03-08T03:28:50;-0.90;99.90
40153;DHT22;26371;56.992;23.912;2024-03-08T03:31:20;-1.00;99.90
40153;DHT22;26371;56.992;23.912;2024-03-08T03:33:51;-1.00;99.90
40153;DHT22;26371;56.992;23.912;2024-03-08T03:36:19;-1.10;99.90
40153;DHT22;26371;56.992;23.912;2024-03-08T03:38:48;-1.10;99.90
40153;DHT22;26371;56.992;23.912;2024-03-08T03:41:19;-1.10;99.90
40153;DHT22;26371;56.992;23.912;2024-03-08T03:43:47;-1.10;99.90
40153;DHT22;26371;56.992;23.912;2024-03-08T03:46:16;-1.10;99.90
40153;DHT22;26371;56.992;23.912;2024-03-08T03:48:45;-1.10;99.90
40153;DHT22;26371;56.992;23.912;2024-03-08T03:51:13;-1.10;99.90
40153;DHT22;26371;56.992;23.912;2024-03-08T03:53:43;-1.10;99.90
40153;DHT22;26371;56.992;23.912;2024-03-08T03:56:11;-1.10;99.90
40153;DHT22;26371;56.992;23.912;2024-03-08T03:58:41;-1.20;99.90
40153;DHT22;26371;56.992;23.912;2024-03-08T04:01:09;-1.30;99.90
40153;DHT22;26371;56.992;23.912;2024-03-08T04:03:41;-1.20;99.90
40153;DHT22;26371;56.992;23.912;2024-03-08T04:06:10;-1.30;99.90
40153;DHT22;26371;56.992;23.912;2024-03-08T04:08:39;-1.30;99.90
40153;DHT22;26371;56.992;23.912;2024-03-08T04:11:08;-1.30;99.90
40153;DHT22;26371;56.992;23.912;2024-03-08T04:13:36;-1.30;99.90
40153;DHT22;26371;56.992;23.912;2024-03-08T04:16:07;-1.30;99.90
40153;DHT22;26371;56.992;23.912;2024-03-08T04:18:35;-1.30;99.90
40153;DHT22;26371;56.992;23.912;2024-03-08T04:21:05;-1.40;99.90
40153;DHT22;26371;56.992;23.912;2024-03-08T04:23:35;-1.40;99.90
40153;DHT22;26371;56.992;23.912;2024-03-08T04:26:04;-1.30;99.90
40153;DHT22;26371;56.992;23.912;2024-03-08T04:28:33;-1.40;99.90
40153;DHT22;26371;56.992;23.912;2024-03-08T04:31:02;-1.40;99.90
40153;DHT22;26371;56.992;23.912;2024-03-08T04:33:31;-1.40;99.90
40153;DHT22;26371;56.992;23.912;2024-03-08T04:36:03;-1.30;99.90
40153;DHT22;26371;56.992;23.912;2024-03-08T04:38:32;-1.40;99.90
40153;DHT22;26371;56.992;23.912;2024-03-08T04:41:01;-1.40;99.90
40153;DHT22;26371;56.992;23.912;2024-03-08T04:43:30;-1.50;99.90
40153;DHT22;26371;56.992;23.912;2024-03-08T04:45:59;-1.50;99.90
40153;DHT22;26371;56.992;23.912;2024-03-08T04:48:28;-1.50;99.90
40153;DHT22;26371;56.992;23.912;2024-03-08T04:50:59;-1.40;99.90
40153;DHT22;26371;56.992;23.912;2024-03-08T04:53:28;-1.40;99.90
40153;DHT22;26371;56.992;23.912;2024-03-08T04:55:57;-1.50;99.90
40153;DHT22;26371;56.992;23.912;2024-03-08T04:58:26;-1.50;99.90
40153;DHT22;26371;56.992;23.912;2024-03-08T05:00:54;-1.50;99.90
40153;DHT22;26371;56.992;23.912;2024-03-08T05:03:23;-1.40;99.90
40153;DHT22;26371;56.992;23.912;2024-03-08T05:05:53;-1.50;99.90
40153;DHT22;26371;56.992;23.912;2024-03-08T05:08:24;-1.50;99.90
40153;DHT22;26371;56.992;23.912;2024-03-08T05:10:53;-1.50;99.90
40153;DHT22;26371;56.992;23.912;2024-03-08T05:13:22;-1.40;99.90
40153;DHT22;26371;56.992;23.912;2024-03-08T05:15:51;-1.40;99.90
40153;DHT22;26371;56.992;23.912;2024-03-08T05:18:19;-1.50;99.90
40153;DHT22;26371;56.992;23.912;2024-03-08T05:20:49;-1.50;99.90
40153;DHT22;26371;56.992;23.912;2024-03-08T05:23:18;-1.50;99.90
40153;DHT22;26371;56.992;23.912;2024-03-08T05:25:49;-1.50;99.90
40153;DHT22;26371;56.992;23.912;2024-03-08T05:28:18;-1.40;99.90
40153;DHT22;26371;56.992;23.912;2024-03-08T05:30:47;-1.40;99.90
40153;DHT22;26371;56.992;23.912;2024-03-08T05:33:15;-1.40;99.90
40153;DHT22;26371;56.992;23.912;2024-03-08T05:35:44;-1.40;99.90
40153;DHT22;26371;56.992;23.912;2024-03-08T05:38:13;-1.50;99.90
40153;DHT22;26371;56.992;23.912;2024-03-08T05:40:41;-1.50;99.90
40153;DHT22;26371;56.992;23.912;2024-03-08T05:43:12;-1.50;99.90
40153;DHT22;26371;56.992;23.912;2024-03-08T05:45:40;-1.50;99.90
40153;DHT22;26371;56.992;23.912;2024-03-08T05:48:09;-1.50;99.90
40153;DHT22;26371;56.992;23.912;2024-03-08T05:50:39;-1.50;99.90
40153;DHT22;26371;56.992;23.912;2024-03-08T05:53:10;-1.50;99.90
40153;DHT22;26371;56.992;23.912;2024-03-08T05:55:40;-1.50;99.90
40153;DHT22;26371;56.992;23.912;2024-03-08T05:58:08;-1.40;99.90
40153;DHT22;26371;56.992;23.912;2024-03-08T06:00:40;-1.40;99.90
40153;DHT22;26371;56.992;23.912;2024-03-08T06:03:09;-1.50;99.90
40153;DHT22;26371;56.992;23.912;2024-03-08T06:05:38;-1.40;99.90
40153;DHT22;26371;56.992;23.912;2024-03-08T06:08:09;-1.40;99.90
40153;DHT22;26371;56.992;23.912;2024-03-08T06:10:38;-1.30;99.90
40153;DHT22;26371;56.992;23.912;2024-03-08T06:13:07;-1.20;99.90
40153;DHT22;26371;56.992;23.912;2024-03-08T06:15:36;-1.20;99.90
40153;DHT22;26371;56.992;23.912;2024-03-08T06:18:06;-1.20;99.90
40153;DHT22;26371;56.992;23.912;2024-03-08T06:20:38;-1.30;99.90
40153;DHT22;26371;56.992;23.912;2024-03-08T06:23:06;-1.20;99.90
40153;DHT22;26371;56.992;23.912;2024-03-08T06:25:36;-1.30;99.90
40153;DHT22;26371;56.992;23.912;2024-03-08T06:28:05;-1.20;99.90
40153;DHT22;26371;56.992;23.912;2024-03-08T06:30:34;-1.30;99.90
40153;DHT22;26371;56.992;23.912;2024-03-08T06:33:03;-1.20;99.90
40153;DHT22;26371;56.992;23.912;2024-03-08T06:35:33;-1.20;99.90
40153;DHT22;26371;56.992;23.912;2024-03-08T06:38:05;-1.20;99.90
40153;DHT22;26371;56.992;23.912;2024-03-08T06:40:33;-1.20;99.90
40153;DHT22;26371;56.992;23.912;2024-03-08T06:43:02;-1.30;99.90
40153;DHT22;26371;56.992;23.912;2024-03-08T06:45:33;-1.30;99.90
40153;DHT22;26371;56.992;23.912;2024-03-08T06:48:05;-1.40;99.90
40153;DHT22;26371;56.992;23.912;2024-03-08T06:50:38;-1.30;99.90
40153;DHT22;26371;56.992;23.912;2024-03-08T06:53:07;-1.30;99.90
40153;DHT22;26371;56.992;23.912;2024-03-08T06:55:35;-1.30;99.90
40153;DHT22;26371;56.992;23.912;2024-03-08T06:58:04;-1.30;99.90
40153;DHT22;26371;56.992;23.912;2024-03-08T07:00:34;-1.30;99.90
40153;DHT22;26371;56.992;23.912;2024-03-08T07:03:03;-1.30;99.90
40153;DHT22;26371;56.992;23.912;2024-03-08T07:05:41;-1.20;99.90
40153;DHT22;26371;56.992;23.912;2024-03-08T07:08:10;-1.20;99.90
40153;DHT22;26371;56.992;23.912;2024-03-08T07:10:41;-1.10;99.90
40153;DHT22;26371;56.992;23.912;2024-03-08T07:13:12;-1.10;99.90
40153;DHT22;26371;56.992;23.912;2024-03-08T07:15:41;-1.00;99.90
40153;DHT22;26371;56.992;23.912;2024-03-08T07:18:09;-1.00;99.90
40153;DHT22;26371;56.992;23.912;2024-03-08T07:20:43;-1.00;99.90
40153;DHT22;26371;56.992;23.912;2024-03-08T07:23:12;-0.90;99.90
40153;DHT22;26371;56.992;23.912;2024-03-08T07:26:00;-0.90;99.90
40153;DHT22;26371;56.992;23.912;2024-03-08T07:28:29;-0.80;99.90
40153;DHT22;26371;56.992;23.912;2024-03-08T07:30:58;-0.80;99.90
40153;DHT22;26371;56.992;23.912;2024-03-08T07:33:44;-0.80;99.90
40153;DHT22;26371;56.992;23.912;2024-03-08T07:36:14;-0.80;99.90
40153;DHT22;26371;56.992;23.912;2024-03-08T07:38:43;-0.80;99.90
40153;DHT22;26371;56.992;23.912;2024-03-08T07:41:15;-0.70;99.90
40153;DHT22;26371;56.992;23.912;2024-03-08T07:43:43;-0.80;99.90
40153;DHT22;26371;56.992;23.912;2024-03-08T07:46:12;-0.70;99.90
40153;DHT22;26371;56.992;23.912;2024-03-08T07:48:41;-0.70;99.90
40153;DHT22;26371;56.992;23.912;2024-03-08T07:51:10;-0.70;99.90
40153;DHT22;26371;56.992;23.912;2024-03-08T07:53:40;-0.70;99.90
40153;DHT22;26371;56.992;23.912;2024-03-08T07:56:11;-0.60;99.90
40153;DHT22;26371;56.992;23.912;2024-03-08T07:58:41;-0.70;99.90
40153;DHT22;26371;56.992;23.912;2024-03-08T08:01:16;-0.70;99.90
40153;DHT22;26371;56.992;23.912;2024-03-08T08:03:45;-0.70;99.90
40153;DHT22;26371;56.992;23.912;2024-03-08T08:06:16;-0.70;99.90
40153;DHT22;26371;56.992;23.912;2024-03-08T08:08:46;-0.60;99.90
40153;DHT22;26371;56.992;23.912;2024-03-08T08:11:14;-0.60;99.90
40153;DHT22;26371;56.992;23.912;2024-03-08T08:13:44;-0.60;99.90
40153;DHT22;26371;56.992;23.912;2024-03-08T08:16:12;-0.50;99.90
40153;DHT22;26371;56.992;23.912;2024-03-08T08:18:41;-0.50;99.90
40153;DHT22;26371;56.992;23.912;2024-03-08T08:21:11;-0.50;99.90
40153;DHT22;26371;56.992;23.912;2024-03-08T08:23:40;-0.40;99.90
40153;DHT22;26371;56.992;23.912;2024-03-08T08:26:10;-0.30;99.90
40153;DHT22;26371;56.992;23.912;2024-03-08T08:28:40;-0.30;99.90
40153;DHT22;26371;56.992;23.912;2024-03-08T08:31:10;-0.30;99.90
40153;DHT22;26371;56.992;23.912;2024-03-08T08:33:40;-0.30;99.90
40153;DHT22;26371;56.992;23.912;2024-03-08T08:36:08;-0.30;99.90
40153;DHT22;26371;56.992;23.912;2024-03-08T08:38:37;-0.30;99.90
40153;DHT22;26371;56.992;23.912;2024-03-08T08:41:06;-0.30;99.90
40153;DHT22;26371;56.992;23.912;2024-03-08T08:43:36;-0.30;99.90
40153;DHT22;26371;56.992;23.912;2024-03-08T08:46:17;-0.30;99.90
40153;DHT22;26371;56.992;23.912;2024-03-08T08:48:47;-0.30;99.90
40153;DHT22;26371;56.992;23.912;2024-03-08T08:51:16;-0.30;99.90
40153;DHT22;26371;56.992;23.912;2024-03-08T08:53:44;-0.30;99.90
40153;DHT22;26371;56.992;23.912;2024-03-08T08:56:15;-0.20;99.90
40153;DHT22;26371;56.992;23.912;2024-03-08T08:58:45;-0.20;99.90
40153;DHT22;26371;56.992;23.912;2024-03-08T09:01:14;-0.20;99.90
40153;DHT22;26371;56.992;23.912;2024-03-08T09:03:46;-0.20;99.90
40153;DHT22;26371;56.992;23.912;2024-03-08T09:06:14;-0.20;99.90
40153;DHT22;26371;56.992;23.912;2024-03-08T09:08:44;-0.10;99.90
40153;DHT22;26371;56.992;23.912;2024-03-08T09:11:13;-0.10;99.90
40153;DHT22;26371;56.992;23.912;2024-03-08T09:13:46;0.00;99.90
40153;DHT22;26371;56.992;23.912;2024-03-08T09:16:14;0.00;99.90
40153;DHT22;26371;56.992;23.912;2024-03-08T09:18:43;0.00;99.90
40153;DHT22;26371;56.992;23.912;2024-03-08T09:21:12;0.10;99.90
40153;DHT22;26371;56.992;23.912;2024-03-08T09:23:41;0.10;99.90
40153;DHT22;26371;56.992;23.912;2024-03-08T09:26:12;0.10;99.90
40153;DHT22;26371;56.992;23.912;2024-03-08T09:28:56;0.10;99.90
40153;DHT22;26371;56.992;23.912;2024-03-08T09:31:24;0.00;99.90
40153;DHT22;26371;56.992;23.912;2024-03-08T09:33:53;0.00;99.90
40153;DHT22;26371;56.992;23.912;2024-03-08T09:36:22;-0.10;99.90
40153;DHT22;26371;56.992;23.912;2024-03-08T09:38:51;-0.10;99.90
40153;DHT22;26371;56.992;23.912;2024-03-08T09:41:20;-0.10;99.90
40153;DHT22;26371;56.992;23.912;2024-03-08T09:43:49;-0.10;99.90
40153;DHT22;26371;56.992;23.912;2024-03-08T09:46:19;-0.10;99.90
40153;DHT22;26371;56.992;23.912;2024-03-08T09:48:50;0.00;99.90
40153;DHT22;26371;56.992;23.912;2024-03-08T09:51:22;-0.10;99.90
40153;DHT22;26371;56.992;23.912;2024-03-08T09:53:54;0.00;99.90
40153;DHT22;26371;56.992;23.912;2024-03-08T09:56:23;0.10;99.90
40153;DHT22;26371;56.992;23.912;2024-03-08T09:58:52;0.10;99.90
40153;DHT22;26371;56.992;23.912;2024-03-08T10:01:43;0.10;99.90
40153;DHT22;26371;56.992;23.912;2024-03-08T10:04:12;0.20;99.90
40153;DHT22;26371;56.992;23.912;2024-03-08T10:06:42;0.20;99.90
40153;DHT22;26371;56.992;23.912;2024-03-08T10:09:10;0.20;99.90
40153;DHT22;26371;56.992;23.912;2024-03-08T10:11:40;0.10;99.90
40153;DHT22;26371;56.992;23.912;2024-03-08T10:14:09;0.10;99.90
40153;DHT22;26371;56.992;23.912;2024-03-08T10:16:38;0.10;99.90
40153;DHT22;26371;56.992;23.912;2024-03-08T10:19:08;0.10;99.90
40153;DHT22;26371;56.992;23.912;2024-03-08T10:21:48;0.10;99.90
40153;DHT22;26371;56.992;23.912;2024-03-08T10:24:17;0.10;99.90
40153;DHT22;26371;56.992;23.912;2024-03-08T10:26:46;0.00;99.90
40153;DHT22;26371;56.992;23.912;2024-03-08T10:29:15;0.10;99.90
40153;DHT22;26371;56.992;23.912;2024-03-08T10:31:44;0.00;99.90
40153;DHT22;26371;56.992;23.912;2024-03-08T10:34:15;0.10;99.90
40153;DHT22;26371;56.992;23.912;2024-03-08T10:36:44;0.00;99.90
40153;DHT22;26371;56.992;23.912;2024-03-08T10:39:21;0.00;99.90
40153;DHT22;26371;56.992;23.912;2024-03-08T10:41:56;0.10;99.90
40153;DHT22;26371;56.992;23.912;2024-03-08T10:44:37;0.10;99.90
40153;DHT22;26371;56.992;23.912;2024-03-08T10:47:15;0.10;99.90
40153;DHT22;26371;56.992;23.912;2024-03-08T10:49:54;0.10;99.90
40153;DHT22;26371;56.992;23.912;2024-03-08T10:52:24;0.10;99.90
40153;DHT22;26371;56.992;23.912;2024-03-08T10:54:54;0.10;99.90
40153;DHT22;26371;56.992;23.912;2024-03-08T10:57:24;0.20;99.90
40153;DHT22;26371;56.992;23.912;2024-03-08T10:59:55;0.20;99.90
40153;DHT22;26371;56.992;23.912;2024-03-08T11:02:45;0.20;99.90
40153;DHT22;26371;56.992;23.912;2024-03-08T11:05:31;0.20;99.90
40153;DHT22;26371;56.992;23.912;2024-03-08T11:08:03;0.20;99.90
40153;DHT22;26371;56.992;23.912;2024-03-08T11:10:32;0.20;99.90
40153;DHT22;26371;56.992;23.912;2024-03-08T11:13:01;0.20;99.90
40153;DHT22;26371;56.992;23.912;2024-03-08T11:15:30;0.20;99.90
40153;DHT22;26371;56.992;23.912;2024-03-08T11:18:00;0.20;99.90
40153;DHT22;26371;56.992;23.912;2024-03-08T11:20:31;0.20;99.90
40153;DHT22;26371;56.992;23.912;2024-03-08T11:23:04;0.20;99.90
40153;DHT22;26371;56.992;23.912;2024-03-08T11:25:38;0.20;99.90
40153;DHT22;26371;56.992;23.912;2024-03-08T11:28:14;0.20;99.90
40153;DHT22;26371;56.992;23.912;2024-03-08T11:30:46;0.20;99.90
40153;DHT22;26371;56.992;23.912;2024-03-08T11:33:15;0.10;99.90
40153;DHT22;26371;56.992;23.912;2024-03-08T11:35:45;0.10;99.90
40153;DHT22;26371;56.992;23.912;2024-03-08T11:38:14;0.10;99.90
40153;DHT22;26371;56.992;23.912;2024-03-08T11:40:46;0.10;99.90
40153;DHT22;26371;56.992;23.912;2024-03-08T11:43:17;0.10;99.90
40153;DHT22;26371;56.992;23.912;2024-03-08T11:45:47;0.10;99.90
40153;DHT22;26371;56.992;23.912;2024-03-08T11:48:15;0.10;99.90
40153;DHT22;26371;56.992;23.912;2024-03-08T11:50:46;0.20;99.90
40153;DHT22;26371;56.992;23.912;2024-03-08T11:53:16;0.20;99.90
40153;DHT22;26371;56.992;23.912;2024-03-08T11:55:45;0.20;99.90
40153;DHT22;26371;56.992;23.912;2024-03-08T11:58:15;0.20;99.90
40153;DHT22;26371;56.992;23.912;2024-03-08T12:00:45;0.10;99.90
40153;DHT22;26371;56.992;23.912;2024-03-08T12:03:14;0.10;99.90
40153;DHT22;26371;56.992;23.912;2024-03-08T12:05:44;0.10;99.90
40153;DHT22;26371;56.992;23.912;2024-03-08T12:08:14;0.10;99.90
40153;DHT22;26371;56.992;23.912;2024-03-08T12:10:43;0.10;99.90
40153;DHT22;26371;56.992;23.912;2024-03-08T12:13:12;0.10;99.90
40153;DHT22;26371;56.992;23.912;2024-03-08T12:15:41;0.00;99.90
40153;DHT22;26371;56.992;23.912;2024-03-08T12:18:11;0.00;99.90
40153;DHT22;26371;56.992;23.912;2024-03-08T12:20:40;-0.10;99.90
40153;DHT22;26371;56.992;23.912;2024-03-08T12:23:15;-0.10;99.90
40153;DHT22;26371;56.992;23.912;2024-03-08T12:25:45;-0.10;99.90
40153;DHT22;26371;56.992;23.912;2024-03-08T12:28:15;0.00;99.90
40153;DHT22;26371;56.992;23.912;2024-03-08T12:30:47;0.10;99.90
40153;DHT22;26371;56.992;23.912;2024-03-08T12:33:15;0.30;99.90
40153;DHT22;26371;56.992;23.912;2024-03-08T12:35:51;0.40;99.90
40153;DHT22;26371;56.992;23.912;2024-03-08T12:38:28;0.50;99.90
40153;DHT22;26371;56.992;23.912;2024-03-08T12:40:59;0.50;99.90
40153;DHT22;26371;56.992;23.912;2024-03-08T12:43:28;0.40;99.90
40153;DHT22;26371;56.992;23.912;2024-03-08T12:45:59;0.30;99.90
40153;DHT22;26371;56.992;23.912;2024-03-08T12:48:28;0.20;99.90
40153;DHT22;26371;56.992;23.912;2024-03-08T12:50:56;0.30;99.90
40153;DHT22;26371;56.992;23.912;2024-03-08T12:53:26;0.30;99.90
40153;DHT22;26371;56.992;23.912;2024-03-08T12:55:56;0.40;99.90
40153;DHT22;26371;56.992;23.912;2024-03-08T12:58:25;0.40;99.90
40153;DHT22;26371;56.992;23.912;2024-03-08T13:00:54;0.40;99.90
40153;DHT22;26371;56.992;23.912;2024-03-08T13:03:23;0.30;99.90
40153;DHT22;26371;56.992;23.912;2024-03-08T13:05:52;0.20;99.90
40153;DHT22;26371;56.992;23.912;2024-03-08T13:08:20;0.10;99.90
40153;DHT22;26371;56.992;23.912;2024-03-08T13:10:53;0.20;99.90
40153;DHT22;26371;56.992;23.912;2024-03-08T13:13:22;0.20;99.90
40153;DHT22;26371;56.992;23.912;2024-03-08T13:15:52;0.30;99.90
40153;DHT22;26371;56.992;23.912;2024-03-08T13:18:23;0.30;99.90
40153;DHT22;26371;56.992;23.912;2024-03-08T13:20:52;0.20;99.90
40153;DHT22;26371;56.992;23.912;2024-03-08T13:23:21;0.20;99.90
40153;DHT22;26371;56.992;23.912;2024-03-08T13:25:50;0.20;99.90
40153;DHT22;26371;56.992;23.912;2024-03-08T13:28:21;0.20;99.90
40153;DHT22;26371;56.992;23.912;2024-03-08T13:30:55;0.20;99.90
40153;DHT22;26371;56.992;23.912;2024-03-08T13:33:29;0.30;99.90
40153;DHT22;26371;56.992;23.912;2024-03-08T13:35:57;0.30;99.90
40153;DHT22;26371;56.992;23.912;2024-03-08T13:38:32;0.40;99.90
40153;DHT22;26371;56.992;23.912;2024-03-08T13:41:01;0.30;99.90
40153;DHT22;26371;56.992;23.912;2024-03-08T13:43:31;0.30;99.90
40153;DHT22;26371;56.992;23.912;2024-03-08T13:46:03;0.20;99.90
40153;DHT22;26371;56.992;23.912;2024-03-08T13:48:34;0.20;99.90
40153;DHT22;26371;56.992;23.912;2024-03-08T13:51:05;0.10;99.90
40153;DHT22;26371;56.992;23.912;2024-03-08T13:53:35;0.10;99.90
40153;DHT22;26371;56.992;23.912;2024-03-08T13:56:04;0.10;99.90
40153;DHT22;26371;56.992;23.912;2024-03-08T13:58:34;0.10;99.90
40153;DHT22;26371;56.992;23.912;2024-03-08T14:01:03;0.10;99.90
40153;DHT22;26371;56.992;23.912;2024-03-08T14:03:39;0.20;99.90
40153;DHT22;26371;56.992;23.912;2024-03-08T14:06:09;0.10;99.90
40153;DHT22;26371;56.992;23.912;2024-03-08T14:08:51;0.00;99.90
40153;DHT22;26371;56.992;23.912;2024-03-08T14:11:24;0.00;99.90
40153;DHT22;26371;56.992;23.912;2024-03-08T14:13:54;0.00;99.90
40153;DHT22;26371;56.992;23.912;2024-03-08T14:16:23;0.00;99.90
40153;DHT22;26371;56.992;23.912;2024-03-08T14:18:52;0.00;99.90
40153;DHT22;26371;56.992;23.912;2024-03-08T14:21:20;-0.10;99.90
40153;DHT22;26371;56.992;23.912;2024-03-08T14:23:49;-0.20;99.90
40153;DHT22;26371;56.992;23.912;2024-03-08T14:26:19;-0.10;99.90
40153;DHT22;26371;56.992;23.912;2024-03-08T14:28:49;-0.20;99.90
40153;DHT22;26371;56.992;23.912;2024-03-08T14:31:20;-0.20;99.90
40153;DHT22;26371;56.992;23.912;2024-03-08T14:33:53;-0.20;99.90
40153;DHT22;26371;56.992;23.912;2024-03-08T14:36:22;-0.20;99.90
40153;DHT22;26371;56.992;23.912;2024-03-08T14:38:52;-0.20;99.90
40153;DHT22;26371;56.992;23.912;2024-03-08T14:41:21;-0.10;99.90
40153;DHT22;26371;56.992;23.912;2024-03-08T14:43:50;-0.20;99.90
40153;DHT22;26371;56.992;23.912;2024-03-08T14:46:22;-0.20;99.90
40153;DHT22;26371;56.992;23.912;2024-03-08T14:48:51;-0.20;99.90
40153;DHT22;26371;56.992;23.912;2024-03-08T14:51:20;-0.20;99.90
40153;DHT22;26371;56.992;23.912;2024-03-08T14:53:53;-0.30;99.90
40153;DHT22;26371;56.992;23.912;2024-03-08T14:56:22;-0.30;99.90
40153;DHT22;26371;56.992;23.912;2024-03-08T14:58:54;-0.40;99.90
40153;DHT22;26371;56.992;23.912;2024-03-08T15:01:27;-0.40;99.90
40153;DHT22;26371;56.992;23.912;2024-03-08T15:03:57;-0.40;99.90
40153;DHT22;26371;56.992;23.912;2024-03-08T15:06:30;-0.50;99.90
40153;DHT22;26371;56.992;23.912;2024-03-08T15:09:00;-0.40;99.90
40153;DHT22;26371;56.992;23.912;2024-03-08T15:11:38;-0.40;99.90
40153;DHT22;26371;56.992;23.912;2024-03-08T15:14:07;-0.50;99.90
40153;DHT22;26371;56.992;23.912;2024-03-08T15:16:40;-0.50;99.90
40153;DHT22;26371;56.992;23.912;2024-03-08T15:19:10;-0.60;99.90
40153;DHT22;26371;56.992;23.912;2024-03-08T15:21:41;-0.60;99.90
40153;DHT22;26371;56.992;23.912;2024-03-08T15:24:13;-0.60;99.90
40153;DHT22;26371;56.992;23.912;2024-03-08T15:26:48;-0.50;99.90
40153;DHT22;26371;56.992;23.912;2024-03-08T15:29:18;-0.50;99.90
40153;DHT22;26371;56.992;23.912;2024-03-08T15:31:53;-0.50;99.90
40153;DHT22;26371;56.992;23.912;2024-03-08T15:34:22;-0.50;99.90
40153;DHT22;26371;56.992;23.912;2024-03-08T15:36:52;-0.40;99.90
40153;DHT22;26371;56.992;23.912;2024-03-08T15:39:21;-0.40;99.90